Aviation Digital Data Service (ADDS)

Output produced by METARs form (2159 UTC 30 September 2016)
found at http://aviationweather.gov/adds/metars/
 
KPNE 301908Z 3019/0118 06014G25KT P6SM BKN011 OVC017 
     TEMPO 3019/3022 3SM -DZ BR OVC008 
     FM302200 05010KT 3SM -DZ BR OVC006 
     FM011500 07010KT 6SM BR OVC006